メインページ
METAR-TAF:

METAR-TAF

空港 :

岐阜基地

岐阜, 日本

緯度: 35-23N, 経度: 136-52E, 海抜: 39m

現時点の気象観測

当レポートは17時間3分前の09:30(UTC)に作成
変向風 1kt
気温 13°C
湿度 67%
気圧 1019 hPa
視程10km以上
高度2500ftの雲はほとんどない
高度5000ftの雲は散在している
高度16000ftの千切れ雲あり

METAR: RJNG 160930Z VRB01KT 9999 FEW025 SCT050 BKN160 13/07 Q1019 RMK 1CU025 3SC050 5AC160 A3011

時間: 11:33 (02:33 UTC)


TAF: 見つかりません

4,000以上の空港の気象観測と天気予報(METAR報とTAF報)

利用可能な観測所は地図上に黄色い丸と赤い丸で示す。

丸の上にカーソルを重ねると観測所名を参照できる。

次にクリックすると気象観測と天気予報を参照できる。

マップの切り替え:黒色「×」印の緑ボタンをクリックして拡大、「-」印の緑ボタンをクリックして縮小、緑色の三角印をクリックして隣りの地図に切り替え


METAR-TAF: